Casmalia, California
Current Conditions -  °F | °C
As of 11:51 AM on Sunday 21 Dec 2014 (Local Time) from KSMX Reporting Station
Few Clouds Few Clouds  
Wind Chill: 68°   Ceiling: Unl
Heat Index: 68°   Visibility: 10mi
Dew Point: 54°   Wind: 13mph
Humidity: 61%   Direction: 320°NW
Pressure: 30.21"   Gusts: NA
Location:  34.84°N, 120.53°W
Report Text: KSMX 211951Z 32011KT 10SM FEW043 20/12 A3021 RMK AO2 SLP230 T02000122 $
Loading
Personal Weather Stations






























Interactive Weather Map New forecast layout! Learn more

10-Day Weather Forecast

Advertisements
Track Severe Weather on mobile